sensor_id;sensor_type;location;lat;lon;timestamp;temperature;humidity
46652;DHT22;32377;52.182;5.398;2023-07-13T00:00:12;17.50;99.90
46652;DHT22;32377;52.182;5.398;2023-07-13T00:02:41;17.50;99.90
46652;DHT22;32377;52.182;5.398;2023-07-13T00:05:07;17.50;99.90
46652;DHT22;32377;52.182;5.398;2023-07-13T00:07:33;17.40;99.90
46652;DHT22;32377;52.182;5.398;2023-07-13T00:09:59;17.30;99.90
46652;DHT22;32377;52.182;5.398;2023-07-13T00:12:30;17.30;99.90
46652;DHT22;32377;52.182;5.398;2023-07-13T00:15:00;17.30;99.90
46652;DHT22;32377;52.182;5.398;2023-07-13T00:17:27;17.30;99.90
46652;DHT22;32377;52.182;5.398;2023-07-13T00:19:54;17.20;99.90
46652;DHT22;32377;52.182;5.398;2023-07-13T00:22:21;17.20;99.90
46652;DHT22;32377;52.182;5.398;2023-07-13T00:24:47;17.20;99.90
46652;DHT22;32377;52.182;5.398;2023-07-13T00:27:13;17.10;99.90
46652;DHT22;32377;52.182;5.398;2023-07-13T00:29:39;17.10;99.90
46652;DHT22;32377;52.182;5.398;2023-07-13T00:32:06;17.10;99.90
46652;DHT22;32377;52.182;5.398;2023-07-13T00:34:32;17.10;99.90
46652;DHT22;32377;52.182;5.398;2023-07-13T00:36:58;17.00;99.90
46652;DHT22;32377;52.182;5.398;2023-07-13T00:39:25;17.10;99.90
46652;DHT22;32377;52.182;5.398;2023-07-13T00:41:51;17.00;99.90
46652;DHT22;32377;52.182;5.398;2023-07-13T00:44:18;17.00;99.90
46652;DHT22;32377;52.182;5.398;2023-07-13T00:46:44;16.90;99.90
46652;DHT22;32377;52.182;5.398;2023-07-13T00:49:13;16.90;99.90
46652;DHT22;32377;52.182;5.398;2023-07-13T00:51:49;16.90;99.90
46652;DHT22;32377;52.182;5.398;2023-07-13T00:54:29;16.90;99.90
46652;DHT22;32377;52.182;5.398;2023-07-13T00:56:59;16.80;99.90
46652;DHT22;32377;52.182;5.398;2023-07-13T00:59:26;16.80;99.90
46652;DHT22;32377;52.182;5.398;2023-07-13T01:01:52;16.80;99.90
46652;DHT22;32377;52.182;5.398;2023-07-13T01:04:18;16.80;99.90
46652;DHT22;32377;52.182;5.398;2023-07-13T01:06:45;16.70;99.90
46652;DHT22;32377;52.182;5.398;2023-07-13T01:09:13;16.70;99.90
46652;DHT22;32377;52.182;5.398;2023-07-13T01:11:40;16.60;99.90
46652;DHT22;32377;52.182;5.398;2023-07-13T01:14:07;16.60;99.90
46652;DHT22;32377;52.182;5.398;2023-07-13T01:16:35;16.60;99.90
46652;DHT22;32377;52.182;5.398;2023-07-13T01:19:03;16.60;99.90
46652;DHT22;32377;52.182;5.398;2023-07-13T01:21:33;16.50;99.90
46652;DHT22;32377;52.182;5.398;2023-07-13T01:24:00;16.40;99.90
46652;DHT22;32377;52.182;5.398;2023-07-13T01:26:27;16.50;99.90
46652;DHT22;32377;52.182;5.398;2023-07-13T01:28:53;16.40;99.90
46652;DHT22;32377;52.182;5.398;2023-07-13T01:31:19;16.40;99.90
46652;DHT22;32377;52.182;5.398;2023-07-13T01:33:44;16.40;99.90
46652;DHT22;32377;52.182;5.398;2023-07-13T01:36:11;16.30;99.90
46652;DHT22;32377;52.182;5.398;2023-07-13T01:38:36;16.30;99.90
46652;DHT22;32377;52.182;5.398;2023-07-13T01:41:03;16.30;99.90
46652;DHT22;32377;52.182;5.398;2023-07-13T01:43:29;16.30;99.90
46652;DHT22;32377;52.182;5.398;2023-07-13T01:45:54;16.20;99.90
46652;DHT22;32377;52.182;5.398;2023-07-13T01:48:20;16.20;99.90
46652;DHT22;32377;52.182;5.398;2023-07-13T01:50:47;16.20;99.90
46652;DHT22;32377;52.182;5.398;2023-07-13T01:53:13;16.20;99.90
46652;DHT22;32377;52.182;5.398;2023-07-13T01:55:38;16.10;99.90
46652;DHT22;32377;52.182;5.398;2023-07-13T01:58:04;16.10;99.90
46652;DHT22;32377;52.182;5.398;2023-07-13T02:00:30;16.10;99.90
46652;DHT22;32377;52.182;5.398;2023-07-13T02:02:56;16.10;99.90
46652;DHT22;32377;52.182;5.398;2023-07-13T02:05:22;16.10;99.90
46652;DHT22;32377;52.182;5.398;2023-07-13T02:07:48;16.00;99.90
46652;DHT22;32377;52.182;5.398;2023-07-13T02:10:15;16.10;99.90
46652;DHT22;32377;52.182;5.398;2023-07-13T02:12:41;16.10;99.90
46652;DHT22;32377;52.182;5.398;2023-07-13T02:15:08;16.00;99.90
46652;DHT22;32377;52.182;5.398;2023-07-13T02:17:35;16.00;99.90
46652;DHT22;32377;52.182;5.398;2023-07-13T02:20:02;16.00;99.90
46652;DHT22;32377;52.182;5.398;2023-07-13T02:22:28;16.00;99.90
46652;DHT22;32377;52.182;5.398;2023-07-13T02:24:54;15.90;99.90
46652;DHT22;32377;52.182;5.398;2023-07-13T02:27:20;15.80;99.90
46652;DHT22;32377;52.182;5.398;2023-07-13T02:29:45;15.80;99.90
46652;DHT22;32377;52.182;5.398;2023-07-13T02:32:11;15.80;99.90
46652;DHT22;32377;52.182;5.398;2023-07-13T02:34:38;15.80;99.90
46652;DHT22;32377;52.182;5.398;2023-07-13T02:37:04;15.80;99.90
46652;DHT22;32377;52.182;5.398;2023-07-13T02:39:29;15.70;99.90
46652;DHT22;32377;52.182;5.398;2023-07-13T02:41:59;15.70;99.90
46652;DHT22;32377;52.182;5.398;2023-07-13T02:44:25;15.70;99.90
46652;DHT22;32377;52.182;5.398;2023-07-13T02:46:50;15.70;99.90
46652;DHT22;32377;52.182;5.398;2023-07-13T02:49:16;15.70;99.90
46652;DHT22;32377;52.182;5.398;2023-07-13T02:51:42;15.60;99.90
46652;DHT22;32377;52.182;5.398;2023-07-13T02:54:08;15.60;99.90
46652;DHT22;32377;52.182;5.398;2023-07-13T02:56:34;15.60;99.90
46652;DHT22;32377;52.182;5.398;2023-07-13T02:59:00;15.60;99.90
46652;DHT22;32377;52.182;5.398;2023-07-13T03:01:26;15.50;99.90
46652;DHT22;32377;52.182;5.398;2023-07-13T03:03:52;15.50;99.90
46652;DHT22;32377;52.182;5.398;2023-07-13T03:06:18;15.50;99.90
46652;DHT22;32377;52.182;5.398;2023-07-13T03:08:44;15.50;99.90
46652;DHT22;32377;52.182;5.398;2023-07-13T03:11:14;15.50;99.90
46652;DHT22;32377;52.182;5.398;2023-07-13T03:13:41;15.50;99.90
46652;DHT22;32377;52.182;5.398;2023-07-13T03:16:08;15.50;99.90
46652;DHT22;32377;52.182;5.398;2023-07-13T03:18:35;15.50;99.90
46652;DHT22;32377;52.182;5.398;2023-07-13T03:21:02;15.40;99.90
46652;DHT22;32377;52.182;5.398;2023-07-13T03:23:27;15.40;99.90
46652;DHT22;32377;52.182;5.398;2023-07-13T03:26:08;15.40;99.90
46652;DHT22;32377;52.182;5.398;2023-07-13T03:28:34;15.40;99.90
46652;DHT22;32377;52.182;5.398;2023-07-13T03:31:20;15.40;99.90
46652;DHT22;32377;52.182;5.398;2023-07-13T03:33:46;15.40;99.90
46652;DHT22;32377;52.182;5.398;2023-07-13T03:36:16;15.40;99.90
46652;DHT22;32377;52.182;5.398;2023-07-13T03:38:52;15.40;99.90
46652;DHT22;32377;52.182;5.398;2023-07-13T03:41:19;15.40;99.90
46652;DHT22;32377;52.182;5.398;2023-07-13T03:43:45;15.40;99.90
46652;DHT22;32377;52.182;5.398;2023-07-13T03:46:10;15.40;99.90
46652;DHT22;32377;52.182;5.398;2023-07-13T03:48:36;15.40;99.90
46652;DHT22;32377;52.182;5.398;2023-07-13T03:51:02;15.40;99.90
46652;DHT22;32377;52.182;5.398;2023-07-13T03:53:28;15.40;99.90
46652;DHT22;32377;52.182;5.398;2023-07-13T03:58:55;15.50;99.90
46652;DHT22;32377;52.182;5.398;2023-07-13T04:01:22;15.40;99.90
46652;DHT22;32377;52.182;5.398;2023-07-13T04:03:48;15.50;99.90
46652;DHT22;32377;52.182;5.398;2023-07-13T04:06:20;15.50;99.90
46652;DHT22;32377;52.182;5.398;2023-07-13T04:08:47;15.40;99.90
46652;DHT22;32377;52.182;5.398;2023-07-13T04:11:14;15.50;99.90
46652;DHT22;32377;52.182;5.398;2023-07-13T04:13:40;15.50;99.90
46652;DHT22;32377;52.182;5.398;2023-07-13T04:16:06;15.50;99.90
46652;DHT22;32377;52.182;5.398;2023-07-13T04:18:32;15.50;99.90
46652;DHT22;32377;52.182;5.398;2023-07-13T04:20:57;15.50;99.90
46652;DHT22;32377;52.182;5.398;2023-07-13T04:23:23;15.60;99.90
46652;DHT22;32377;52.182;5.398;2023-07-13T04:25:52;15.60;99.90
46652;DHT22;32377;52.182;5.398;2023-07-13T04:28:22;15.50;99.90
46652;DHT22;32377;52.182;5.398;2023-07-13T04:30:48;15.50;99.90
46652;DHT22;32377;52.182;5.398;2023-07-13T04:33:14;15.60;99.90
46652;DHT22;32377;52.182;5.398;2023-07-13T04:35:42;15.60;99.90
46652;DHT22;32377;52.182;5.398;2023-07-13T04:38:08;15.60;99.90
46652;DHT22;32377;52.182;5.398;2023-07-13T04:40:37;15.70;99.90
46652;DHT22;32377;52.182;5.398;2023-07-13T04:43:02;15.60;99.90
46652;DHT22;32377;52.182;5.398;2023-07-13T04:45:28;15.70;99.90
46652;DHT22;32377;52.182;5.398;2023-07-13T04:47:54;15.70;99.90
46652;DHT22;32377;52.182;5.398;2023-07-13T04:50:20;15.80;99.90
46652;DHT22;32377;52.182;5.398;2023-07-13T04:52:50;15.80;99.90
46652;DHT22;32377;52.182;5.398;2023-07-13T04:55:16;15.90;99.90
46652;DHT22;32377;52.182;5.398;2023-07-13T04:57:41;15.90;99.90
46652;DHT22;32377;52.182;5.398;2023-07-13T05:00:08;16.00;99.90
46652;DHT22;32377;52.182;5.398;2023-07-13T05:02:34;16.00;99.90
46652;DHT22;32377;52.182;5.398;2023-07-13T05:05:01;16.10;99.90
46652;DHT22;32377;52.182;5.398;2023-07-13T05:07:27;16.10;99.90
46652;DHT22;32377;52.182;5.398;2023-07-13T05:09:52;16.10;99.90
46652;DHT22;32377;52.182;5.398;2023-07-13T05:12:18;16.20;99.90
46652;DHT22;32377;52.182;5.398;2023-07-13T05:14:44;16.30;99.90
46652;DHT22;32377;52.182;5.398;2023-07-13T05:17:10;16.30;99.90
46652;DHT22;32377;52.182;5.398;2023-07-13T05:19:36;16.50;99.90
46652;DHT22;32377;52.182;5.398;2023-07-13T05:22:02;16.50;99.90
46652;DHT22;32377;52.182;5.398;2023-07-13T05:24:29;16.50;99.90
46652;DHT22;32377;52.182;5.398;2023-07-13T05:26:55;16.60;99.90
46652;DHT22;32377;52.182;5.398;2023-07-13T05:29:22;16.70;99.90
46652;DHT22;32377;52.182;5.398;2023-07-13T05:31:49;16.70;99.90
46652;DHT22;32377;52.182;5.398;2023-07-13T05:34:15;16.80;99.90
46652;DHT22;32377;52.182;5.398;2023-07-13T05:36:41;16.80;99.90
46652;DHT22;32377;52.182;5.398;2023-07-13T05:39:07;17.00;99.90
46652;DHT22;32377;52.182;5.398;2023-07-13T05:41:32;17.00;99.90
46652;DHT22;32377;52.182;5.398;2023-07-13T05:43:58;17.10;99.90
46652;DHT22;32377;52.182;5.398;2023-07-13T05:46:24;17.20;99.90
46652;DHT22;32377;52.182;5.398;2023-07-13T05:48:50;17.30;99.90
46652;DHT22;32377;52.182;5.398;2023-07-13T05:51:16;17.30;99.90
46652;DHT22;32377;52.182;5.398;2023-07-13T05:53:41;17.30;99.90
46652;DHT22;32377;52.182;5.398;2023-07-13T05:56:07;17.30;99.90
46652;DHT22;32377;52.182;5.398;2023-07-13T05:58:33;17.30;99.90
46652;DHT22;32377;52.182;5.398;2023-07-13T06:01:02;17.40;99.90
46652;DHT22;32377;52.182;5.398;2023-07-13T06:03:28;17.40;99.90
46652;DHT22;32377;52.182;5.398;2023-07-13T06:05:54;17.50;99.90
46652;DHT22;32377;52.182;5.398;2023-07-13T06:08:20;17.40;99.90
46652;DHT22;32377;52.182;5.398;2023-07-13T06:10:46;17.50;99.90
46652;DHT22;32377;52.182;5.398;2023-07-13T06:13:12;17.50;99.90
46652;DHT22;32377;52.182;5.398;2023-07-13T06:15:37;17.60;99.90
46652;DHT22;32377;52.182;5.398;2023-07-13T06:18:03;17.90;99.90
46652;DHT22;32377;52.182;5.398;2023-07-13T06:20:29;17.90;99.90
46652;DHT22;32377;52.182;5.398;2023-07-13T06:22:55;18.00;99.90
46652;DHT22;32377;52.182;5.398;2023-07-13T06:25:20;18.00;99.90
46652;DHT22;32377;52.182;5.398;2023-07-13T06:27:46;18.00;99.90
46652;DHT22;32377;52.182;5.398;2023-07-13T06:30:12;18.00;99.90
46652;DHT22;32377;52.182;5.398;2023-07-13T06:32:38;17.90;99.90
46652;DHT22;32377;52.182;5.398;2023-07-13T06:35:04;17.90;99.90
46652;DHT22;32377;52.182;5.398;2023-07-13T06:37:30;17.90;99.90
46652;DHT22;32377;52.182;5.398;2023-07-13T06:39:56;17.90;99.90
46652;DHT22;32377;52.182;5.398;2023-07-13T06:42:21;17.90;99.90
46652;DHT22;32377;52.182;5.398;2023-07-13T06:44:47;17.80;99.90
46652;DHT22;32377;52.182;5.398;2023-07-13T06:47:13;18.00;99.90
46652;DHT22;32377;52.182;5.398;2023-07-13T06:49:38;18.30;99.90
46652;DHT22;32377;52.182;5.398;2023-07-13T06:52:04;18.40;99.90
46652;DHT22;32377;52.182;5.398;2023-07-13T06:54:30;18.60;99.90
46652;DHT22;32377;52.182;5.398;2023-07-13T06:56:56;18.80;99.90
46652;DHT22;32377;52.182;5.398;2023-07-13T06:59:21;18.90;99.90
46652;DHT22;32377;52.182;5.398;2023-07-13T07:01:47;19.00;99.90
46652;DHT22;32377;52.182;5.398;2023-07-13T07:04:13;19.00;99.90
46652;DHT22;32377;52.182;5.398;2023-07-13T07:06:38;19.10;99.90
46652;DHT22;32377;52.182;5.398;2023-07-13T07:09:04;19.40;99.90
46652;DHT22;32377;52.182;5.398;2023-07-13T07:11:30;19.40;99.90
46652;DHT22;32377;52.182;5.398;2023-07-13T07:13:55;19.50;99.90
46652;DHT22;32377;52.182;5.398;2023-07-13T07:16:22;19.40;99.90
46652;DHT22;32377;52.182;5.398;2023-07-13T07:18:48;19.40;99.90
46652;DHT22;32377;52.182;5.398;2023-07-13T07:21:14;19.20;99.90
46652;DHT22;32377;52.182;5.398;2023-07-13T07:23:40;19.20;99.90
46652;DHT22;32377;52.182;5.398;2023-07-13T07:26:06;19.20;99.90
46652;DHT22;32377;52.182;5.398;2023-07-13T07:28:34;19.10;99.90
46652;DHT22;32377;52.182;5.398;2023-07-13T07:31:00;18.80;99.90
46652;DHT22;32377;52.182;5.398;2023-07-13T07:33:25;18.50;99.90
46652;DHT22;32377;52.182;5.398;2023-07-13T07:35:51;18.40;99.90
46652;DHT22;32377;52.182;5.398;2023-07-13T07:38:17;18.30;99.90
46652;DHT22;32377;52.182;5.398;2023-07-13T07:40:43;18.30;99.90
46652;DHT22;32377;52.182;5.398;2023-07-13T07:43:11;18.30;99.90
46652;DHT22;32377;52.182;5.398;2023-07-13T07:45:38;18.20;99.90
46652;DHT22;32377;52.182;5.398;2023-07-13T07:48:04;18.20;99.90
46652;DHT22;32377;52.182;5.398;2023-07-13T07:50:31;18.30;99.90
46652;DHT22;32377;52.182;5.398;2023-07-13T07:52:56;18.20;99.90
46652;DHT22;32377;52.182;5.398;2023-07-13T07:55:23;18.20;99.90
46652;DHT22;32377;52.182;5.398;2023-07-13T07:57:49;18.30;99.90
46652;DHT22;32377;52.182;5.398;2023-07-13T08:00:15;18.40;99.90
46652;DHT22;32377;52.182;5.398;2023-07-13T08:02:42;18.60;99.90
46652;DHT22;32377;52.182;5.398;2023-07-13T08:05:09;18.80;99.90
46652;DHT22;32377;52.182;5.398;2023-07-13T08:07:36;18.90;99.90
46652;DHT22;32377;52.182;5.398;2023-07-13T08:10:02;18.90;99.90
46652;DHT22;32377;52.182;5.398;2023-07-13T08:12:28;19.00;99.90
46652;DHT22;32377;52.182;5.398;2023-07-13T08:14:53;19.10;99.90
46652;DHT22;32377;52.182;5.398;2023-07-13T08:17:22;19.30;99.90
46652;DHT22;32377;52.182;5.398;2023-07-13T08:19:48;19.60;99.90
46652;DHT22;32377;52.182;5.398;2023-07-13T08:22:14;19.80;99.90
46652;DHT22;32377;52.182;5.398;2023-07-13T08:24:40;19.80;99.90
46652;DHT22;32377;52.182;5.398;2023-07-13T08:27:08;19.90;99.90
46652;DHT22;32377;52.182;5.398;2023-07-13T08:29:34;19.70;99.90
46652;DHT22;32377;52.182;5.398;2023-07-13T08:31:59;19.60;99.90
46652;DHT22;32377;52.182;5.398;2023-07-13T08:34:25;19.50;99.90
46652;DHT22;32377;52.182;5.398;2023-07-13T08:36:51;19.90;99.90
46652;DHT22;32377;52.182;5.398;2023-07-13T08:39:17;20.00;99.90
46652;DHT22;32377;52.182;5.398;2023-07-13T08:41:46;20.00;99.90
46652;DHT22;32377;52.182;5.398;2023-07-13T08:44:51;20.20;99.90
46652;DHT22;32377;52.182;5.398;2023-07-13T08:47:21;19.90;99.90
46652;DHT22;32377;52.182;5.398;2023-07-13T08:49:48;19.80;99.90
46652;DHT22;32377;52.182;5.398;2023-07-13T08:52:31;19.70;99.90
46652;DHT22;32377;52.182;5.398;2023-07-13T08:55:04;19.40;99.90
46652;DHT22;32377;52.182;5.398;2023-07-13T08:57:33;19.10;99.90
46652;DHT22;32377;52.182;5.398;2023-07-13T08:59:59;18.90;99.90
46652;DHT22;32377;52.182;5.398;2023-07-13T09:02:40;18.70;99.90
46652;DHT22;32377;52.182;5.398;2023-07-13T09:05:40;18.60;99.90
46652;DHT22;32377;52.182;5.398;2023-07-13T09:16:24;18.20;99.90
46652;DHT22;32377;52.182;5.398;2023-07-13T09:18:52;18.10;99.90
46652;DHT22;32377;52.182;5.398;2023-07-13T09:23:58;18.20;99.90
46652;DHT22;32377;52.182;5.398;2023-07-13T09:26:29;18.30;99.90
46652;DHT22;32377;52.182;5.398;2023-07-13T09:29:33;18.50;99.90
46652;DHT22;32377;52.182;5.398;2023-07-13T09:31:54;18.70;99.90
46652;DHT22;32377;52.182;5.398;2023-07-13T09:34:20;18.60;99.90
46652;DHT22;32377;52.182;5.398;2023-07-13T09:36:46;18.60;99.90
46652;DHT22;32377;52.182;5.398;2023-07-13T09:39:18;18.40;99.90
46652;DHT22;32377;52.182;5.398;2023-07-13T09:42:14;18.50;99.90
46652;DHT22;32377;52.182;5.398;2023-07-13T09:44:53;18.50;99.90
46652;DHT22;32377;52.182;5.398;2023-07-13T09:47:25;18.50;99.90
46652;DHT22;32377;52.182;5.398;2023-07-13T09:50:00;18.40;99.90
46652;DHT22;32377;52.182;5.398;2023-07-13T09:52:26;18.40;99.90
46652;DHT22;32377;52.182;5.398;2023-07-13T09:54:54;18.10;99.90
46652;DHT22;32377;52.182;5.398;2023-07-13T09:58:51;17.90;99.90
46652;DHT22;32377;52.182;5.398;2023-07-13T10:01:35;17.80;99.90
46652;DHT22;32377;52.182;5.398;2023-07-13T10:04:10;17.60;99.90
46652;DHT22;32377;52.182;5.398;2023-07-13T10:06:39;17.70;99.90
46652;DHT22;32377;52.182;5.398;2023-07-13T10:09:08;17.90;99.90
46652;DHT22;32377;52.182;5.398;2023-07-13T10:11:36;18.30;99.90
46652;DHT22;32377;52.182;5.398;2023-07-13T10:14:10;18.60;99.90
46652;DHT22;32377;52.182;5.398;2023-07-13T10:16:38;18.70;99.90
46652;DHT22;32377;52.182;5.398;2023-07-13T10:21:43;19.00;99.90
46652;DHT22;32377;52.182;5.398;2023-07-13T10:24:29;19.40;99.90
46652;DHT22;32377;52.182;5.398;2023-07-13T10:27:20;19.50;99.90
46652;DHT22;32377;52.182;5.398;2023-07-13T10:30:06;19.50;99.90
46652;DHT22;32377;52.182;5.398;2023-07-13T10:32:35;19.50;99.90
46652;DHT22;32377;52.182;5.398;2023-07-13T10:35:01;19.80;99.90
46652;DHT22;32377;52.182;5.398;2023-07-13T10:37:43;19.80;99.90
46652;DHT22;32377;52.182;5.398;2023-07-13T10:40:16;19.90;99.90
46652;DHT22;32377;52.182;5.398;2023-07-13T10:42:46;19.90;99.90
46652;DHT22;32377;52.182;5.398;2023-07-13T10:45:18;20.00;99.90
46652;DHT22;32377;52.182;5.398;2023-07-13T10:47:45;19.90;99.90
46652;DHT22;32377;52.182;5.398;2023-07-13T10:50:21;19.80;99.90
46652;DHT22;32377;52.182;5.398;2023-07-13T10:52:49;19.90;99.90
46652;DHT22;32377;52.182;5.398;2023-07-13T10:58:31;20.20;99.90
46652;DHT22;32377;52.182;5.398;2023-07-13T11:01:02;20.50;99.90
46652;DHT22;32377;52.182;5.398;2023-07-13T11:03:30;20.60;99.90
46652;DHT22;32377;52.182;5.398;2023-07-13T11:08:56;20.30;99.90
46652;DHT22;32377;52.182;5.398;2023-07-13T11:18:50;19.10;99.90
46652;DHT22;32377;52.182;5.398;2023-07-13T11:21:21;19.10;99.90
46652;DHT22;32377;52.182;5.398;2023-07-13T11:24:04;19.20;99.90
46652;DHT22;32377;52.182;5.398;2023-07-13T11:26:39;19.40;99.90
46652;DHT22;32377;52.182;5.398;2023-07-13T11:31:40;19.40;99.90
46652;DHT22;32377;52.182;5.398;2023-07-13T11:34:13;19.10;99.90
46652;DHT22;32377;52.182;5.398;2023-07-13T11:36:44;19.10;99.90
46652;DHT22;32377;52.182;5.398;2023-07-13T11:42:05;19.10;99.90
46652;DHT22;32377;52.182;5.398;2023-07-13T11:44:34;19.10;99.90
46652;DHT22;32377;52.182;5.398;2023-07-13T11:47:14;19.30;99.90
46652;DHT22;32377;52.182;5.398;2023-07-13T11:49:48;19.50;99.90
46652;DHT22;32377;52.182;5.398;2023-07-13T11:52:20;19.70;99.90
46652;DHT22;32377;52.182;5.398;2023-07-13T11:54:51;19.70;99.90
46652;DHT22;32377;52.182;5.398;2023-07-13T11:57:33;19.70;99.90
46652;DHT22;32377;52.182;5.398;2023-07-13T12:00:04;19.60;99.90
46652;DHT22;32377;52.182;5.398;2023-07-13T12:02:34;19.70;99.90
46652;DHT22;32377;52.182;5.398;2023-07-13T12:05:02;19.80;99.90
46652;DHT22;32377;52.182;5.398;2023-07-13T12:07:31;19.60;99.90
46652;DHT22;32377;52.182;5.398;2023-07-13T12:10:26;19.60;99.90
46652;DHT22;32377;52.182;5.398;2023-07-13T12:13:02;19.60;99.90
46652;DHT22;32377;52.182;5.398;2023-07-13T12:15:38;19.50;99.90
46652;DHT22;32377;52.182;5.398;2023-07-13T12:18:31;19.70;99.90
46652;DHT22;32377;52.182;5.398;2023-07-13T12:20:58;19.80;99.90
46652;DHT22;32377;52.182;5.398;2023-07-13T12:23:31;19.90;99.90
46652;DHT22;32377;52.182;5.398;2023-07-13T12:26:01;20.00;99.90
46652;DHT22;32377;52.182;5.398;2023-07-13T12:28:34;20.10;99.90
46652;DHT22;32377;52.182;5.398;2023-07-13T12:31:07;20.30;99.90
46652;DHT22;32377;52.182;5.398;2023-07-13T12:33:33;20.60;99.90
46652;DHT22;32377;52.182;5.398;2023-07-13T12:36:05;20.70;99.90
46652;DHT22;32377;52.182;5.398;2023-07-13T12:38:32;20.70;99.90
46652;DHT22;32377;52.182;5.398;2023-07-13T12:40:58;20.50;99.90
46652;DHT22;32377;52.182;5.398;2023-07-13T12:43:25;20.80;99.90
46652;DHT22;32377;52.182;5.398;2023-07-13T12:46:02;21.30;99.90
46652;DHT22;32377;52.182;5.398;2023-07-13T12:48:28;21.20;99.90
46652;DHT22;32377;52.182;5.398;2023-07-13T12:50:56;21.00;99.90
46652;DHT22;32377;52.182;5.398;2023-07-13T12:53:30;21.10;99.90
46652;DHT22;32377;52.182;5.398;2023-07-13T12:56:02;21.20;99.90
46652;DHT22;32377;52.182;5.398;2023-07-13T13:00:56;21.30;99.90
46652;DHT22;32377;52.182;5.398;2023-07-13T13:03:37;21.30;99.90
46652;DHT22;32377;52.182;5.398;2023-07-13T13:06:27;21.20;99.90
46652;DHT22;32377;52.182;5.398;2023-07-13T13:08:55;21.10;99.90
46652;DHT22;32377;52.182;5.398;2023-07-13T13:11:23;21.40;99.90
46652;DHT22;32377;52.182;5.398;2023-07-13T13:13:50;21.70;99.90
46652;DHT22;32377;52.182;5.398;2023-07-13T13:16:32;22.00;99.90
46652;DHT22;32377;52.182;5.398;2023-07-13T13:19:18;22.10;99.90
46652;DHT22;32377;52.182;5.398;2023-07-13T13:21:46;22.00;99.90
46652;DHT22;32377;52.182;5.398;2023-07-13T13:24:16;21.60;99.90
46652;DHT22;32377;52.182;5.398;2023-07-13T13:26:43;21.40;99.90
46652;DHT22;32377;52.182;5.398;2023-07-13T13:29:19;21.40;99.90
46652;DHT22;32377;52.182;5.398;2023-07-13T13:31:46;21.50;99.90
46652;DHT22;32377;52.182;5.398;2023-07-13T13:34:13;21.30;99.90
46652;DHT22;32377;52.182;5.398;2023-07-13T13:36:40;21.30;99.90
46652;DHT22;32377;52.182;5.398;2023-07-13T13:39:24;21.30;99.90
46652;DHT22;32377;52.182;5.398;2023-07-13T13:41:52;21.30;99.90
46652;DHT22;32377;52.182;5.398;2023-07-13T13:44:18;21.30;99.90
46652;DHT22;32377;52.182;5.398;2023-07-13T13:46:50;21.50;99.90
46652;DHT22;32377;52.182;5.398;2023-07-13T13:49:19;21.80;99.90
46652;DHT22;32377;52.182;5.398;2023-07-13T13:51:48;21.90;99.90
46652;DHT22;32377;52.182;5.398;2023-07-13T13:54:15;21.70;99.90
46652;DHT22;32377;52.182;5.398;2023-07-13T13:56:46;21.90;99.90
46652;DHT22;32377;52.182;5.398;2023-07-13T13:59:12;22.00;99.90
46652;DHT22;32377;52.182;5.398;2023-07-13T14:01:39;21.90;99.90
46652;DHT22;32377;52.182;5.398;2023-07-13T14:04:06;22.00;99.90
46652;DHT22;32377;52.182;5.398;2023-07-13T14:06:34;22.20;99.90
46652;DHT22;32377;52.182;5.398;2023-07-13T14:09:01;22.10;99.90
46652;DHT22;32377;52.182;5.398;2023-07-13T14:11:29;22.20;99.90
46652;DHT22;32377;52.182;5.398;2023-07-13T14:13:58;22.40;99.90
46652;DHT22;32377;52.182;5.398;2023-07-13T14:16:30;22.50;99.90
46652;DHT22;32377;52.182;5.398;2023-07-13T14:18:59;22.40;99.90
46652;DHT22;32377;52.182;5.398;2023-07-13T14:21:28;22.40;99.90
46652;DHT22;32377;52.182;5.398;2023-07-13T14:23:54;22.20;99.90
46652;DHT22;32377;52.182;5.398;2023-07-13T14:26:22;22.20;99.90
46652;DHT22;32377;52.182;5.398;2023-07-13T14:28:51;22.30;99.90
46652;DHT22;32377;52.182;5.398;2023-07-13T14:31:18;22.10;99.90
46652;DHT22;32377;52.182;5.398;2023-07-13T14:33:44;21.90;99.90
46652;DHT22;32377;52.182;5.398;2023-07-13T14:36:43;22.10;99.90
46652;DHT22;32377;52.182;5.398;2023-07-13T14:39:16;22.30;99.90
46652;DHT22;32377;52.182;5.398;2023-07-13T14:41:43;22.40;99.90
46652;DHT22;32377;52.182;5.398;2023-07-13T14:44:14;22.30;99.90
46652;DHT22;32377;52.182;5.398;2023-07-13T14:46:41;22.20;99.90
46652;DHT22;32377;52.182;5.398;2023-07-13T14:51:59;22.10;99.90
46652;DHT22;32377;52.182;5.398;2023-07-13T14:54:25;21.90;99.90
46652;DHT22;32377;52.182;5.398;2023-07-13T14:56:51;21.60;99.90
46652;DHT22;32377;52.182;5.398;2023-07-13T14:59:17;21.50;99.90
46652;DHT22;32377;52.182;5.398;2023-07-13T15:01:47;21.70;99.90
46652;DHT22;32377;52.182;5.398;2023-07-13T15:04:13;21.80;99.90
46652;DHT22;32377;52.182;5.398;2023-07-13T15:06:57;21.70;99.90
46652;DHT22;32377;52.182;5.398;2023-07-13T15:09:24;21.80;99.90
46652;DHT22;32377;52.182;5.398;2023-07-13T15:11:55;21.90;99.90
46652;DHT22;32377;52.182;5.398;2023-07-13T15:14:22;22.00;99.90
46652;DHT22;32377;52.182;5.398;2023-07-13T15:16:49;22.00;99.90
46652;DHT22;32377;52.182;5.398;2023-07-13T15:19:17;22.00;99.90
46652;DHT22;32377;52.182;5.398;2023-07-13T15:21:44;22.00;99.90
46652;DHT22;32377;52.182;5.398;2023-07-13T15:24:10;21.90;99.90
46652;DHT22;32377;52.182;5.398;2023-07-13T15:26:37;21.80;99.90
46652;DHT22;32377;52.182;5.398;2023-07-13T15:29:04;22.00;99.90
46652;DHT22;32377;52.182;5.398;2023-07-13T15:31:30;22.10;99.90
46652;DHT22;32377;52.182;5.398;2023-07-13T15:33:58;22.20;99.90
46652;DHT22;32377;52.182;5.398;2023-07-13T15:36:25;22.10;99.90
46652;DHT22;32377;52.182;5.398;2023-07-13T15:38:55;21.90;99.90
46652;DHT22;32377;52.182;5.398;2023-07-13T15:41:23;21.90;99.90
46652;DHT22;32377;52.182;5.398;2023-07-13T15:43:51;21.70;99.90
46652;DHT22;32377;52.182;5.398;2023-07-13T15:46:21;21.70;99.90
46652;DHT22;32377;52.182;5.398;2023-07-13T15:48:48;21.80;99.90
46652;DHT22;32377;52.182;5.398;2023-07-13T15:51:24;21.90;99.90
46652;DHT22;32377;52.182;5.398;2023-07-13T15:53:53;22.00;99.90
46652;DHT22;32377;52.182;5.398;2023-07-13T15:58:52;22.20;99.90
46652;DHT22;32377;52.182;5.398;2023-07-13T16:01:18;22.00;99.90
46652;DHT22;32377;52.182;5.398;2023-07-13T16:03:45;22.00;99.90
46652;DHT22;32377;52.182;5.398;2023-07-13T16:06:25;22.00;99.90
46652;DHT22;32377;52.182;5.398;2023-07-13T16:08:52;22.00;99.90
46652;DHT22;32377;52.182;5.398;2023-07-13T16:11:24;22.00;99.90
46652;DHT22;32377;52.182;5.398;2023-07-13T16:13:51;21.90;99.90
46652;DHT22;32377;52.182;5.398;2023-07-13T16:16:26;21.80;99.90
46652;DHT22;32377;52.182;5.398;2023-07-13T16:18:54;21.80;99.90
46652;DHT22;32377;52.182;5.398;2023-07-13T16:21:26;21.90;99.90
46652;DHT22;32377;52.182;5.398;2023-07-13T16:23:53;21.90;99.90